Time;durP1;ratioP1;P1;durP2;ratioP2;P2;SDS_P1;SDS_P2;PMS_P1;PMS_P2;Temp;Humidity;BMP_temperature;BMP_pressure;BME280_temperature;BME280_humidity;BME280_pressure;Samples;Min_cycle;Max_cycle;Signal;HPM_P1;HPM_P2
2021/08/15 00:00:12;;;;;;;4.03;3.08;;;;;;;28.09;44.45;101501.37;144992;584;6002;-81
2021/08/15 00:02:38;;;;;;;5.60;3.45;;;;;;;28.03;44.33;101512.22;144992;700;6002;-80
2021/08/15 00:05:07;;;;;;;3.45;2.97;;;;;;;28.01;44.53;101517.66;144992;590;6002;-79
2021/08/15 00:07:34;;;;;;;7.05;3.85;;;;;;;27.92;44.70;101509.00;144992;588;6002;-78
2021/08/15 00:10:01;;;;;;;4.78;3.58;;;;;;;27.90;44.79;101509.03;144992;590;6002;-79
2021/08/15 00:12:27;;;;;;;4.72;3.60;;;;;;;27.84;44.93;101515.44;144992;567;6002;-79
2021/08/15 00:14:54;;;;;;;5.87;3.50;;;;;;;27.88;44.91;101517.09;144992;570;6002;-78
2021/08/15 00:17:20;;;;;;;6.50;3.60;;;;;;;27.83;44.89;101518.16;144992;671;6002;-80
2021/08/15 00:19:47;;;;;;;9.32;3.55;;;;;;;27.66;45.21;101507.97;144992;661;6002;-79
2021/08/15 00:22:13;;;;;;;6.12;3.80;;;;;;;27.66;45.19;101508.88;144992;617;6002;-78
2021/08/15 00:24:39;;;;;;;4.45;3.58;;;;;;;27.67;45.16;101513.28;144992;612;6002;-79
2021/08/15 00:27:06;;;;;;;10.52;4.10;;;;;;;27.68;45.16;101506.16;144992;590;6002;-79
2021/08/15 00:29:32;;;;;;;4.62;3.58;;;;;;;27.72;45.07;101507.81;144992;566;6002;-79
2021/08/15 00:32:01;;;;;;;5.30;3.30;;;;;;;27.69;45.09;101506.09;144992;563;6002;-80
2021/08/15 00:34:29;;;;;;;5.93;3.50;;;;;;;27.71;44.89;101502.50;144992;587;6002;-80
2021/08/15 00:36:56;;;;;;;3.97;3.35;;;;;;;27.71;44.95;101508.72;144992;569;6002;-79
2021/08/15 00:39:22;;;;;;;7.72;3.62;;;;;;;27.76;45.02;101512.13;144992;695;6002;-79
2021/08/15 00:41:49;;;;;;;5.28;3.95;;;;;;;27.70;44.90;101501.66;144992;569;6002;-80
2021/08/15 00:44:15;;;;;;;6.47;3.35;;;;;;;27.71;45.02;101510.50;144992;564;6002;-80
2021/08/15 00:46:43;;;;;;;5.30;3.30;;;;;;;27.66;45.01;101507.97;144991;572;6002;-80
2021/08/15 00:49:09;;;;;;;5.68;3.80;;;;;;;27.57;45.30;101519.81;144992;580;6002;-81
2021/08/15 00:51:36;;;;;;;6.28;3.40;;;;;;;27.62;45.27;101509.88;144992;593;6002;-79
2021/08/15 00:54:02;;;;;;;4.25;3.50;;;;;;;27.66;45.25;101508.88;144992;570;6002;-79
2021/08/15 00:56:29;;;;;;;5.90;3.35;;;;;;;27.64;45.09;101512.50;144992;585;6002;-81
2021/08/15 00:58:57;;;;;;;6.43;3.42;;;;;;;27.65;45.19;101508.91;144992;630;6002;-79
2021/08/15 01:01:23;;;;;;;5.55;3.50;;;;;;;27.67;45.04;101509.75;144992;588;6002;-80
2021/08/15 01:03:50;;;;;;;4.32;3.62;;;;;;;27.63;44.94;101513.41;144992;571;6002;-81
2021/08/15 01:06:16;;;;;;;5.37;3.70;;;;;;;27.61;45.09;101521.44;144992;581;6002;-80
2021/08/15 01:08:43;;;;;;;6.40;3.40;;;;;;;27.62;45.10;101509.00;144992;566;6002;-80
2021/08/15 01:11:11;;;;;;;4.80;3.70;;;;;;;27.61;45.07;101508.09;144992;588;6002;-80
2021/08/15 01:13:39;;;;;;;4.22;3.47;;;;;;;27.59;45.23;101509.97;144992;617;6002;-80
2021/08/15 01:16:06;;;;;;;6.50;3.55;;;;;;;27.61;45.04;101507.25;144992;576;6002;-80
2021/08/15 01:18:35;;;;;;;6.37;3.50;;;;;;;27.58;44.82;101507.34;144992;586;6003;-81
2021/08/15 01:21:13;;;;;;;3.95;3.40;;;;;;;27.58;45.11;101499.34;144992;576;6002;-79
2021/08/15 01:23:42;;;;;;;4.28;3.58;;;;;;;27.55;45.15;101508.28;144992;564;6002;-79
2021/08/15 01:26:11;;;;;;;7.80;3.50;;;;;;;27.56;45.00;101511.84;144992;570;6003;-79
2021/08/15 01:28:38;;;;;;;4.87;3.60;;;;;;;27.57;44.91;101505.56;144992;637;6002;-81
2021/08/15 01:31:05;;;;;;;3.83;3.42;;;;;;;27.50;45.21;101508.44;144992;578;6002;-80
2021/08/15 01:33:36;;;;;;;6.22;3.72;;;;;;;27.54;45.10;101509.22;144992;570;6002;-79
2021/08/15 01:36:04;;;;;;;6.28;3.60;;;;;;;27.58;45.04;101507.34;144992;707;6002;-79
2021/08/15 01:38:33;;;;;;;4.60;3.50;;;;;;;27.59;45.36;101507.28;144992;727;6002;-78
2021/08/15 01:41:00;;;;;;;4.28;3.50;;;;;;;27.64;45.07;101509.81;144992;681;6002;-81
2021/08/15 01:43:28;;;;;;;5.18;3.72;;;;;;;27.69;45.20;101511.41;144992;755;6002;-79
2021/08/15 01:45:55;;;;;;;5.28;3.50;;;;;;;27.75;45.07;101514.84;144992;673;6002;-79
2021/08/15 01:48:22;;;;;;;5.20;3.50;;;;;;;27.74;44.95;101518.44;144992;579;6002;-81
2021/08/15 01:50:49;;;;;;;6.78;3.17;;;;;;;27.76;44.94;101506.81;144992;684;6002;-80
2021/08/15 01:53:20;;;;;;;4.82;3.42;;;;;;;27.80;44.86;101507.59;144992;592;6002;-79
2021/08/15 01:55:47;;;;;;;4.57;3.65;;;;;;;27.83;44.80;101516.34;144992;590;6002;-80
2021/08/15 01:58:15;;;;;;;4.72;3.70;;;;;;;27.83;44.73;101516.34;144992;583;6002;-79
2021/08/15 02:00:44;;;;;;;4.50;3.55;;;;;;;27.80;44.68;101513.78;144992;599;6002;-80
2021/08/15 02:03:11;;;;;;;4.80;3.10;;;;;;;27.72;44.77;101515.81;144992;580;6002;-79
2021/08/15 02:05:39;;;;;;;5.85;3.58;;;;;;;27.56;45.09;101515.37;144992;588;6002;-79
2021/08/15 02:08:06;;;;;;;4.32;3.72;;;;;;;27.46;45.02;101517.44;144992;580;6002;-79
2021/08/15 02:10:32;;;;;;;4.85;3.50;;;;;;;27.46;45.15;101525.44;144992;576;6002;-80
2021/08/15 02:13:01;;;;;;;5.03;3.60;;;;;;;27.48;44.94;101518.25;144992;572;6002;-80
2021/08/15 02:15:27;;;;;;;6.15;3.60;;;;;;;27.50;44.92;101511.13;144992;563;6002;-79
2021/08/15 02:17:54;;;;;;;5.22;3.65;;;;;;;27.51;44.71;101512.84;144992;597;6002;-80
2021/08/15 02:20:22;;;;;;;3.83;3.30;;;;;;;27.49;44.52;101520.03;144992;629;6002;-81
2021/08/15 02:22:48;;;;;;;5.53;3.40;;;;;;;27.47;44.74;101519.19;144991;581;6002;-79
2021/08/15 02:25:17;;;;;;;4.28;3.28;;;;;;;27.43;44.72;101532.66;144992;696;6002;-80
2021/08/15 02:27:44;;;;;;;3.97;3.33;;;;;;;27.33;44.99;101526.72;144992;577;6002;-79
2021/08/15 02:30:13;;;;;;;5.78;3.40;;;;;;;27.36;44.90;101529.25;144992;572;6002;-80
2021/08/15 02:32:41;;;;;;;4.70;3.45;;;;;;;27.33;44.50;101529.38;144992;749;6002;-79
2021/08/15 02:35:09;;;;;;;4.57;3.28;;;;;;;27.32;44.85;101525.81;144992;599;6002;-80
2021/08/15 02:37:41;;;;;;;4.53;3.80;;;;;;;27.29;44.78;101531.19;144992;586;6002;-80
2021/08/15 02:40:09;;;;;;;4.78;4.10;;;;;;;27.33;44.76;101526.72;144992;586;6002;-80
2021/08/15 02:42:38;;;;;;;4.57;4.12;;;;;;;27.36;44.49;101529.25;144992;630;6002;-79
2021/08/15 02:45:08;;;;;;;6.45;4.62;;;;;;;27.38;44.48;101532.78;144992;588;6002;-79
2021/08/15 02:47:34;;;;;;;6.22;4.07;;;;;;;27.42;44.38;101530.88;144992;642;6002;-79
2021/08/15 02:50:01;;;;;;;5.20;4.10;;;;;;;27.46;44.25;101529.91;144992;588;6002;-80
2021/08/15 02:52:27;;;;;;;6.18;4.03;;;;;;;27.47;44.17;101524.53;144992;594;6002;-81
2021/08/15 02:54:53;;;;;;;5.75;4.10;;;;;;;27.44;44.29;101535.28;144992;703;6002;-79
2021/08/15 02:57:20;;;;;;;4.70;3.83;;;;;;;27.43;44.08;101538.84;144992;707;6002;-81
2021/08/15 02:59:46;;;;;;;5.15;3.58;;;;;;;27.44;44.19;101537.03;144992;696;6002;-78
2021/08/15 03:02:15;;;;;;;5.97;3.50;;;;;;;27.33;44.33;101538.22;144992;679;6002;-80
2021/08/15 03:04:43;;;;;;;5.15;3.70;;;;;;;27.31;44.41;101532.06;144992;567;6002;-80
2021/08/15 03:07:10;;;;;;;7.15;3.70;;;;;;;27.33;44.44;101537.38;144992;590;6011;-81
2021/08/15 03:09:36;;;;;;;4.20;3.72;;;;;;;27.36;44.27;101536.38;144991;646;6002;-80
2021/08/15 03:12:04;;;;;;;4.97;3.80;;;;;;;27.38;44.25;101538.09;144991;578;6002;-79
2021/08/15 03:14:30;;;;;;;3.97;3.53;;;;;;;27.38;44.52;101534.53;144992;591;6002;-80
2021/08/15 03:16:56;;;;;;;5.70;3.58;;;;;;;27.40;44.51;101538.06;144992;570;6002;-79
2021/08/15 03:19:23;;;;;;;4.50;2.92;;;;;;;27.38;44.42;101540.78;144992;594;6002;-80
2021/08/15 03:21:49;;;;;;;6.03;3.45;;;;;;;27.41;44.46;101537.12;144992;571;6002;-79
2021/08/15 03:24:16;;;;;;;5.35;3.65;;;;;;;27.39;44.23;101539.84;144992;599;6002;-80
2021/08/15 03:26:46;;;;;;;4.45;3.30;;;;;;;27.41;44.32;101540.69;144992;582;6002;-80
2021/08/15 03:29:14;;;;;;;3.90;3.47;;;;;;;27.42;44.32;101541.56;144992;566;6002;-80
2021/08/15 03:31:42;;;;;;;4.72;3.47;;;;;;;27.42;44.24;101545.09;144992;629;6002;-80
2021/08/15 03:34:09;;;;;;;4.78;3.45;;;;;;;27.42;44.38;101545.09;144992;673;6002;-79
2021/08/15 03:36:36;;;;;;;4.60;3.67;;;;;;;27.43;44.09;101552.19;144992;672;6002;-79
2021/08/15 03:39:02;;;;;;;5.28;4.78;;;;;;;27.41;44.26;101553.13;144992;600;6002;-79
2021/08/15 03:41:29;;;;;;;11.00;5.30;;;;;;;27.40;44.27;101549.59;144992;579;6002;-79
2021/08/15 03:43:55;;;;;;;5.55;4.90;;;;;;;27.40;44.10;101552.25;144992;588;6002;-79
2021/08/15 03:46:22;;;;;;;6.15;4.68;;;;;;;27.39;44.14;101553.16;144992;566;6002;-79
2021/08/15 03:48:49;;;;;;;7.97;5.30;;;;;;;27.39;44.01;101553.16;144992;600;6002;-79
2021/08/15 03:51:15;;;;;;;9.25;5.20;;;;;;;27.37;44.12;101552.34;144992;702;6002;-79
2021/08/15 03:53:42;;;;;;;4.95;4.47;;;;;;;27.34;44.02;101549.75;144992;571;6002;-79
2021/08/15 03:56:08;;;;;;;10.43;4.40;;;;;;;27.35;44.17;101548.84;144993;656;6002;-80
2021/08/15 03:58:35;;;;;;;6.32;3.95;;;;;;;27.36;44.28;101549.72;144993;592;6002;-79
2021/08/15 04:01:02;;;;;;;7.93;4.20;;;;;;;27.37;44.12;101554.16;144993;576;6002;-80
2021/08/15 04:03:28;;;;;;;3.83;3.53;;;;;;;27.35;44.03;101554.19;144992;576;6002;-79
2021/08/15 04:05:56;;;;;;;4.32;3.60;;;;;;;27.36;44.12;101557.72;144993;585;6008;-80
2021/08/15 04:08:23;;;;;;;5.05;3.60;;;;;;;27.37;44.36;101564.81;144993;700;6002;-78
2021/08/15 04:10:53;;;;;;;4.05;3.30;;;;;;;27.37;44.33;101563.00;144993;601;6012;-80
2021/08/15 04:13:19;;;;;;;5.80;3.42;;;;;;;27.38;44.39;101559.44;144993;593;6002;-79
2021/08/15 04:15:48;;;;;;;3.53;3.22;;;;;;;27.38;44.27;101558.53;144993;648;6002;-79
2021/08/15 04:18:15;;;;;;;3.97;3.17;;;;;;;27.34;44.40;101555.09;144993;578;6002;-80
2021/08/15 04:20:41;;;;;;;4.15;3.33;;;;;;;27.32;44.50;101557.78;144993;764;6002;-80
2021/08/15 04:23:07;;;;;;;4.12;3.30;;;;;;;27.34;44.47;101557.75;144993;583;6002;-79
2021/08/15 04:25:34;;;;;;;4.70;3.80;;;;;;;27.35;44.67;101567.50;144993;598;6002;-79
2021/08/15 04:28:01;;;;;;;6.25;3.87;;;;;;;27.33;44.72;101561.34;144992;596;6002;-78
2021/08/15 04:30:27;;;;;;;7.65;3.70;;;;;;;27.33;44.71;101558.69;144992;737;6002;-79
2021/08/15 04:32:54;;;;;;;7.20;3.80;;;;;;;27.34;44.81;101560.41;144992;596;6003;-80
2021/08/15 04:35:20;;;;;;;4.18;3.78;;;;;;;27.21;44.96;101561.66;144992;593;6002;-79
2021/08/15 04:37:47;;;;;;;4.68;4.20;;;;;;;27.22;45.36;101561.59;144992;570;6002;-79
2021/08/15 04:40:13;;;;;;;4.18;3.78;;;;;;;27.23;45.26;101567.81;144992;594;6002;-79
2021/08/15 04:42:40;;;;;;;5.68;3.80;;;;;;;27.26;45.34;101562.37;144993;565;6002;-80
2021/08/15 04:45:07;;;;;;;6.72;3.78;;;;;;;27.20;45.70;101567.88;144993;569;6002;-80
2021/08/15 04:47:33;;;;;;;5.00;3.47;;;;;;;27.19;45.58;101561.69;144993;597;6002;-80
2021/08/15 04:50:00;;;;;;;5.82;3.90;;;;;;;27.25;45.52;101565.97;144993;593;6002;-78
2021/08/15 04:52:26;;;;;;;8.20;4.15;;;;;;;27.30;45.79;101562.31;144993;564;6002;-79
2021/08/15 04:54:53;;;;;;;5.30;4.20;;;;;;;27.36;45.62;101568.38;144993;598;6002;-79
2021/08/15 04:57:19;;;;;;;6.03;4.12;;;;;;;27.35;46.55;101567.50;144993;589;6002;-80
2021/08/15 04:59:46;;;;;;;7.03;3.85;;;;;;;27.36;46.02;101560.38;144993;572;6002;-80
2021/08/15 05:02:12;;;;;;;5.25;3.80;;;;;;;27.40;45.95;101568.25;144993;576;6002;-79
2021/08/15 05:04:39;;;;;;;8.75;3.90;;;;;;;27.43;46.01;101569.97;144993;606;6002;-80
2021/08/15 05:07:05;;;;;;;8.63;3.80;;;;;;;27.42;45.76;101569.06;144993;633;6002;-79
2021/08/15 05:09:32;;;;;;;10.82;3.83;;;;;;;27.38;45.96;101572.75;144993;596;6002;-79
2021/08/15 05:11:58;;;;;;;8.02;3.92;;;;;;;27.43;46.17;101569.97;144993;569;6002;-80
2021/08/15 05:14:25;;;;;;;9.50;3.70;;;;;;;27.50;45.92;101575.09;144993;580;6002;-81
2021/08/15 05:16:51;;;;;;;5.32;3.60;;;;;;;27.58;46.05;101579.34;144993;605;6002;-79
2021/08/15 05:19:18;;;;;;;4.60;3.35;;;;;;;27.57;46.09;101580.25;144992;572;6002;-79
2021/08/15 05:21:44;;;;;;;5.25;3.70;;;;;;;27.62;45.95;101575.69;144993;652;6002;-80
2021/08/15 05:24:10;;;;;;;5.50;3.40;;;;;;;27.68;45.83;101592.38;144993;628;6002;-79
2021/08/15 05:26:37;;;;;;;4.35;3.62;;;;;;;27.74;45.95;101580.62;144993;589;6002;-78
2021/08/15 05:29:03;;;;;;;4.55;3.70;;;;;;;27.78;45.79;101592.97;144993;566;6002;-80
2021/08/15 05:31:30;;;;;;;9.40;3.90;;;;;;;27.85;45.57;101589.25;144993;653;6002;-80
2021/08/15 05:33:57;;;;;;;6.18;3.70;;;;;;;27.92;45.77;101579.25;144993;580;6002;-79
2021/08/15 05:36:24;;;;;;;3.92;3.53;;;;;;;28.00;45.34;101587.06;144994;594;5002;-79
2021/08/15 05:38:50;;;;;;;5.15;4.03;;;;;;;28.04;45.32;101586.03;144993;579;5002;-80
2021/08/15 05:41:17;;;;;;;3.85;3.45;;;;;;;28.11;45.34;101584.06;144994;668;5002;-79
2021/08/15 05:43:43;;;;;;;4.03;3.53;;;;;;;28.17;45.17;101584.78;144994;569;5002;-79
2021/08/15 05:46:10;;;;;;;5.45;4.18;;;;;;;28.21;45.20;101585.56;144994;577;5002;-80
2021/08/15 05:48:36;;;;;;;4.40;3.50;;;;;;;28.27;45.58;101588.03;144994;599;5002;-80
2021/08/15 05:51:05;;;;;;;4.18;3.78;;;;;;;28.33;45.35;101587.84;144994;563;5002;-80
2021/08/15 05:53:31;;;;;;;5.35;4.05;;;;;;;28.41;45.26;101590.25;144994;606;5002;-80
2021/08/15 05:55:58;;;;;;;4.30;3.70;;;;;;;28.45;45.29;101589.25;144994;571;5002;-81
2021/08/15 05:58:27;;;;;;;5.62;4.03;;;;;;;28.52;45.13;101584.59;144994;583;5002;-80
2021/08/15 06:00:54;;;;;;;4.57;3.90;;;;;;;28.59;45.38;101588.84;144994;585;5002;-79
2021/08/15 06:03:20;;;;;;;5.78;4.50;;;;;;;28.64;45.32;101586.03;144994;577;5002;-81
2021/08/15 06:05:46;;;;;;;5.10;4.15;;;;;;;28.63;45.38;101585.16;144994;592;5002;-80
2021/08/15 06:08:15;;;;;;;6.97;4.40;;;;;;;28.69;45.13;101586.75;144994;653;5002;-81
2021/08/15 06:10:42;;;;;;;5.65;4.20;;;;;;;28.78;45.16;101581.12;144994;585;5002;-79
2021/08/15 06:13:09;;;;;;;4.85;4.03;;;;;;;28.86;45.14;101588.88;144994;596;5002;-79
2021/08/15 06:15:36;;;;;;;6.15;4.20;;;;;;;28.90;45.14;101590.50;144993;633;5002;-80
2021/08/15 06:18:03;;;;;;;4.37;3.67;;;;;;;28.95;45.24;101586.78;144993;578;5002;-79
2021/08/15 06:20:29;;;;;;;4.65;3.80;;;;;;;29.04;45.04;101574.03;144994;580;5002;-80
2021/08/15 06:22:56;;;;;;;7.80;4.10;;;;;;;29.12;44.35;101585.31;144994;563;5002;-81
2021/08/15 06:25:22;;;;;;;5.57;3.87;;;;;;;29.21;44.65;101582.37;144994;591;5002;-81
2021/08/15 06:27:50;;;;;;;7.10;4.07;;;;;;;29.29;44.60;101584.78;144994;740;5002;-79
2021/08/15 06:30:17;;;;;;;5.45;3.85;;;;;;;29.31;44.25;101577.56;144994;650;5002;-80
2021/08/15 06:32:49;;;;;;;4.32;3.70;;;;;;;29.34;44.36;101577.47;144994;652;5002;-78
2021/08/15 06:35:17;;;;;;;4.10;3.60;;;;;;;29.41;44.15;101576.28;144994;719;5002;-78
2021/08/15 06:37:44;;;;;;;5.68;4.00;;;;;;;29.47;43.98;101576.09;144994;597;5002;-80
2021/08/15 06:40:11;;;;;;;6.55;3.90;;;;;;;29.53;42.96;101572.31;144994;694;5002;-79
2021/08/15 06:42:38;;;;;;;5.45;3.47;;;;;;;29.58;43.73;101572.16;144994;639;5002;-79
2021/08/15 06:45:05;;;;;;;7.47;4.15;;;;;;;29.68;43.39;101573.56;144994;678;5002;-79
2021/08/15 06:47:32;;;;;;;5.20;3.60;;;;;;;29.81;43.50;101574.00;144994;581;5002;-80
2021/08/15 06:50:02;;;;;;;4.45;3.70;;;;;;;29.85;43.76;101570.28;144994;658;5002;-80
2021/08/15 06:52:29;;;;;;;5.32;3.03;;;;;;;29.89;43.00;101563.91;144994;617;5002;-80
2021/08/15 06:55:00;;;;;;;7.75;3.47;;;;;;;29.87;42.68;101567.56;144994;608;5002;-80
2021/08/15 06:57:29;;;;;;;6.37;3.42;;;;;;;29.65;42.35;101568.31;144994;658;5002;-80
2021/08/15 06:59:56;;;;;;;3.80;3.37;;;;;;;29.47;41.49;101575.22;144994;592;5002;-79
2021/08/15 07:02:22;;;;;;;5.12;3.85;;;;;;;29.40;41.37;101574.56;144994;599;5002;-79
2021/08/15 07:04:49;;;;;;;4.68;3.60;;;;;;;29.26;42.82;101563.50;144994;661;5002;-80
2021/08/15 07:07:15;;;;;;;6.30;3.62;;;;;;;29.27;43.38;101568.78;144994;597;5002;-80
2021/08/15 07:09:42;;;;;;;4.70;3.80;;;;;;;29.21;44.37;101569.00;144994;614;5002;-79
2021/08/15 07:12:08;;;;;;;4.87;3.70;;;;;;;29.23;45.71;101567.12;144994;581;5002;-80
2021/08/15 07:14:37;;;;;;;3.70;3.40;;;;;;;29.31;44.79;101566.88;144994;570;5002;-80
2021/08/15 07:17:04;;;;;;;4.20;3.42;;;;;;;29.34;44.79;101573.94;144994;569;5002;-80
2021/08/15 07:19:30;;;;;;;4.18;3.67;;;;;;;29.31;45.22;101566.88;144994;630;5002;-79
2021/08/15 07:21:57;;;;;;;5.12;3.70;;;;;;;29.49;45.94;101568.00;144994;666;5002;-80
2021/08/15 07:24:23;;;;;;;5.55;3.65;;;;;;;29.37;47.75;101574.69;144994;598;5002;-81
2021/08/15 07:26:51;;;;;;;4.57;3.60;;;;;;;29.30;47.26;101567.78;144994;575;5002;-79
2021/08/15 07:29:19;;;;;;;4.40;3.35;;;;;;;29.35;47.78;101575.66;144994;608;5002;-79
2021/08/15 07:31:45;;;;;;;4.47;3.65;;;;;;;29.30;47.97;101574.03;144994;583;5002;-81
2021/08/15 07:34:12;;;;;;;8.23;4.12;;;;;;;29.33;47.92;101578.38;144994;564;5002;-80
2021/08/15 07:36:39;;;;;;;6.80;4.12;;;;;;;29.40;47.35;101569.22;144993;577;5002;-79
2021/08/15 07:39:06;;;;;;;5.90;3.40;;;;;;;29.47;46.80;101580.56;144994;654;5002;-81
2021/08/15 07:41:33;;;;;;;5.07;3.53;;;;;;;29.45;46.71;101574.41;144994;591;5002;-82
2021/08/15 07:43:59;;;;;;;7.53;4.22;;;;;;;29.56;46.47;101580.25;144994;569;5002;-79
2021/08/15 07:46:29;;;;;;;5.85;3.53;;;;;;;29.55;46.04;101578.47;144994;590;5002;-81
2021/08/15 07:48:56;;;;;;;4.15;3.35;;;;;;;29.63;46.04;101575.53;144994;650;5002;-78
2021/08/15 07:51:22;;;;;;;5.62;3.40;;;;;;;29.59;46.30;101581.91;144994;570;5002;-80
2021/08/15 07:53:50;;;;;;;6.43;3.53;;;;;;;29.59;46.35;101581.91;144994;572;5002;-81
2021/08/15 07:56:17;;;;;;;4.62;3.47;;;;;;;29.56;46.30;101576.66;144994;591;5002;-79
2021/08/15 07:58:43;;;;;;;5.43;3.45;;;;;;;29.48;46.14;101577.84;144994;576;5002;-80
2021/08/15 08:01:09;;;;;;;4.62;3.47;;;;;;;29.54;46.18;101582.09;144994;577;5002;-80
2021/08/15 08:03:36;;;;;;;6.85;3.60;;;;;;;29.64;45.97;101578.16;144994;583;5002;-81
2021/08/15 08:06:02;;;;;;;4.80;3.30;;;;;;;29.64;46.32;101572.81;144994;570;5002;-80
2021/08/15 08:08:29;;;;;;;4.20;3.60;;;;;;;29.75;46.29;101572.41;144994;570;5002;-79
2021/08/15 08:10:55;;;;;;;6.93;3.50;;;;;;;29.65;46.48;101568.31;144994;610;5002;-81
2021/08/15 08:13:23;;;;;;;5.07;3.60;;;;;;;29.60;46.63;101570.28;144994;600;5002;-80
2021/08/15 08:15:50;;;;;;;5.50;3.20;;;;;;;29.64;46.32;101575.47;144994;582;5002;-80
2021/08/15 08:18:17;;;;;;;5.20;3.58;;;;;;;29.73;46.34;101570.72;144994;600;5002;-79
2021/08/15 08:20:43;;;;;;;4.32;3.50;;;;;;;29.77;45.80;101570.53;144994;577;5002;-80
2021/08/15 08:23:15;;;;;;;6.90;3.60;;;;;;;29.65;46.86;101573.66;144994;610;5002;-81
2021/08/15 08:25:44;;;;;;;6.30;3.80;;;;;;;29.50;47.30;101567.09;144994;572;5002;-80
2021/08/15 08:28:12;;;;;;;5.90;3.95;;;;;;;29.48;47.26;101560.94;144994;590;5002;-79
2021/08/15 08:30:38;;;;;;;5.03;3.45;;;;;;;29.52;46.94;101567.91;144994;599;5003;-79
2021/08/15 08:33:05;;;;;;;6.03;3.50;;;;;;;29.51;47.91;101562.59;144994;607;5002;-80
2021/08/15 08:35:31;;;;;;;6.12;4.22;;;;;;;29.71;46.21;101565.41;144994;591;5002;-80
2021/08/15 08:37:58;;;;;;;5.05;3.53;;;;;;;29.80;45.67;101558.91;144994;659;5002;-79
2021/08/15 08:40:25;;;;;;;7.78;3.92;;;;;;;29.81;45.89;101555.28;144994;596;5002;-79
2021/08/15 08:42:52;;;;;;;6.28;4.22;;;;;;;29.88;45.52;101546.09;144994;564;5002;-80
2021/08/15 08:45:21;;;;;;;7.62;4.50;;;;;;;29.92;46.17;101558.41;144994;621;5002;-80
2021/08/15 08:47:48;;;;;;;5.15;4.32;;;;;;;29.94;45.45;101544.97;144994;577;5002;-80
2021/08/15 08:50:15;;;;;;;5.32;4.07;;;;;;;29.84;45.98;101544.44;144994;664;5002;-80
2021/08/15 08:52:43;;;;;;;7.87;4.05;;;;;;;29.88;45.55;101545.22;144994;614;5002;-80
2021/08/15 08:55:09;;;;;;;10.80;4.20;;;;;;;29.87;46.13;101533.62;144994;600;5002;-81
2021/08/15 08:57:36;;;;;;;6.28;3.75;;;;;;;29.99;45.30;101545.69;144994;613;5002;-80
2021/08/15 09:00:04;;;;;;;4.65;3.50;;;;;;;29.96;45.87;101530.59;144994;607;5002;-80
2021/08/15 09:02:30;;;;;;;6.03;3.70;;;;;;;30.11;45.22;101528.25;144994;599;5002;-80
2021/08/15 09:04:57;;;;;;;7.65;4.20;;;;;;;29.98;45.70;101528.72;144994;615;5002;-81
2021/08/15 09:07:23;;;;;;;7.68;3.72;;;;;;;30.06;45.82;101523.09;144994;617;5002;-81
2021/08/15 09:09:57;;;;;;;6.12;3.60;;;;;;;30.21;45.16;101518.94;144994;570;5002;-79
2021/08/15 09:12:44;;;;;;;6.53;3.67;;;;;;;30.24;45.54;101516.13;144994;608;5002;-80
2021/08/15 09:15:22;;;;;;;7.72;4.05;;;;;;;30.14;45.22;101514.75;144994;624;5002;-80
2021/08/15 09:17:49;;;;;;;6.55;3.70;;;;;;;30.17;45.35;101517.31;144994;588;5002;-80
2021/08/15 09:20:23;;;;;;;7.50;3.50;;;;;;;30.17;46.11;101514.63;144994;599;5002;-79
2021/08/15 09:22:50;;;;;;;6.37;3.60;;;;;;;30.40;44.86;101513.75;144994;613;5003;-80
2021/08/15 09:25:21;;;;;;;5.37;3.70;;;;;;;30.17;45.50;101506.59;144994;569;5002;-80
2021/08/15 09:27:57;;;;;;;5.35;3.50;;;;;;;30.13;45.05;101502.28;144994;592;5002;-81
2021/08/15 09:30:31;;;;;;;6.93;3.90;;;;;;;30.14;45.19;101504.91;144994;571;5003;-80
2021/08/15 09:33:15;;;;;;;7.07;3.37;;;;;;;30.27;45.04;101504.41;144994;609;5002;-79
2021/08/15 09:35:42;;;;;;;10.40;3.60;;;;;;;30.15;45.02;101500.44;144994;581;5002;-79
2021/08/15 09:38:11;;;;;;;5.93;3.45;;;;;;;30.15;44.99;101497.78;144994;591;5002;-80
2021/08/15 09:40:49;;;;;;;5.45;3.60;;;;;;;30.24;44.80;101488.47;144994;660;5002;-79
2021/08/15 09:43:27;;;;;;;5.00;3.65;;;;;;;30.23;44.57;101498.31;144994;584;5002;-79
2021/08/15 09:45:57;;;;;;;7.68;3.35;;;;;;;30.29;44.27;101492.72;144994;629;5002;-80
2021/08/15 09:48:37;;;;;;;4.95;3.80;;;;;;;30.25;44.52;101488.41;144994;569;5002;-80
2021/08/15 09:51:17;;;;;;;5.53;3.25;;;;;;;30.19;44.56;101494.91;144994;657;5002;-79
2021/08/15 09:54:01;;;;;;;5.95;3.95;;;;;;;30.14;44.42;101487.97;144994;659;5002;-79
2021/08/15 09:56:38;;;;;;;4.72;3.03;;;;;;;30.21;44.17;101490.34;144994;569;5002;-81
2021/08/15 09:59:19;;;;;;;6.03;3.53;;;;;;;30.14;44.28;101482.62;144994;593;5002;-79
2021/08/15 10:01:47;;;;;;;4.93;3.53;;;;;;;30.12;44.03;101471.13;144994;595;5002;-80
2021/08/15 10:04:15;;;;;;;5.37;3.75;;;;;;;30.12;44.65;101468.44;144994;577;5002;-80
2021/08/15 10:06:45;;;;;;;7.28;3.67;;;;;;;30.27;44.42;101473.16;144994;585;5002;-80
2021/08/15 10:09:14;;;;;;;6.35;3.30;;;;;;;30.17;43.70;101466.44;144994;629;4567;-79
2021/08/15 10:11:42;;;;;;;6.40;3.20;;;;;;;30.36;42.62;101464.75;144994;579;4572;-80
2021/08/15 10:14:10;;;;;;;6.90;3.40;;;;;;;30.33;42.60;101474.72;144994;621;4571;-80
2021/08/15 10:16:45;;;;;;;4.15;3.12;;;;;;;30.24;42.77;101475.94;144992;564;6002;-80
2021/08/15 10:19:15;;;;;;;4.95;3.40;;;;;;;30.36;43.08;101461.19;144992;602;6002;-81
2021/08/15 10:21:47;;;;;;;4.78;3.37;;;;;;;30.46;42.23;101454.53;144992;574;6002;-80
2021/08/15 10:24:15;;;;;;;10.65;4.00;;;;;;;30.31;42.21;101450.69;144992;582;6002;-80
2021/08/15 10:26:52;;;;;;;12.13;3.92;;;;;;;30.61;42.49;101458.41;144992;618;6002;-80
2021/08/15 10:29:45;;;;;;;6.93;3.70;;;;;;;30.75;42.49;101450.63;144992;598;6002;-81
2021/08/15 10:32:23;;;;;;;5.18;4.00;;;;;;;30.92;43.39;101447.19;144992;614;6004;-80
2021/08/15 10:35:12;;;;;;;4.95;3.50;;;;;;;31.01;42.82;101445.09;144992;670;6004;-81
2021/08/15 10:37:38;;;;;;;6.07;3.53;;;;;;;31.05;42.15;101442.22;144992;651;6003;-80
2021/08/15 10:40:05;;;;;;;4.78;3.50;;;;;;;31.14;41.54;101445.41;144992;605;6002;-80
2021/08/15 10:42:45;;;;;;;6.62;3.80;;;;;;;31.14;41.28;101443.59;144992;575;6002;-80
2021/08/15 10:45:24;;;;;;;9.60;3.65;;;;;;;31.00;41.74;101443.34;144992;585;6002;-80
2021/08/15 10:48:30;;;;;;;5.15;3.53;;;;;;;30.90;41.88;101449.09;144992;585;6002;-80
2021/08/15 10:51:00;;;;;;;5.62;3.62;;;;;;;31.01;42.73;101434.38;144992;670;6002;-82
2021/08/15 10:53:47;;;;;;;5.62;3.40;;;;;;;31.07;42.41;101443.00;144992;573;6002;-79
2021/08/15 10:56:13;;;;;;;5.12;3.20;;;;;;;31.25;42.32;101432.38;144992;577;6004;-80
2021/08/15 10:58:50;;;;;;;7.28;3.20;;;;;;;31.28;41.30;101429.56;144992;731;6004;-80
2021/08/15 11:01:18;;;;;;;5.03;3.25;;;;;;;31.15;41.33;101428.38;144992;594;6004;-81
2021/08/15 11:03:53;;;;;;;7.12;3.67;;;;;;;31.01;42.64;101419.16;144992;669;6004;-80
2021/08/15 11:06:52;;;;;;;6.40;3.58;;;;;;;30.97;41.72;101427.41;144992;562;6004;-79
2021/08/15 11:09:18;;;;;;;4.22;3.15;;;;;;;31.01;42.24;101427.19;144992;573;6002;-79
2021/08/15 11:12:04;;;;;;;5.62;3.45;;;;;;;31.05;41.83;101425.25;144992;569;6002;-80
2021/08/15 11:14:31;;;;;;;6.07;3.28;;;;;;;31.01;41.65;101423.66;144992;571;6004;-80
2021/08/15 11:17:12;;;;;;;4.35;3.37;;;;;;;30.93;41.83;101422.12;144992;619;6004;-80
2021/08/15 11:19:39;;;;;;;5.97;3.78;;;;;;;30.66;43.13;101416.19;144992;587;6004;-80
2021/08/15 11:22:25;;;;;;;8.45;3.83;;;;;;;30.68;43.63;101406.28;144992;585;6005;-80
2021/08/15 11:25:02;;;;;;;5.45;3.28;;;;;;;30.72;42.72;101405.22;144992;567;6004;-80
2021/08/15 11:27:37;;;;;;;6.53;3.85;;;;;;;30.71;41.89;101406.13;144992;602;6002;-80
2021/08/15 11:30:18;;;;;;;6.03;3.72;;;;;;;30.54;43.05;101406.91;144992;651;6002;-80
2021/08/15 11:32:56;;;;;;;5.12;3.28;;;;;;;30.62;42.62;101401.19;144992;643;6002;-79
2021/08/15 11:35:23;;;;;;;6.43;3.50;;;;;;;30.61;43.36;101395.87;144992;687;6002;-81
2021/08/15 11:37:54;;;;;;;8.90;3.83;;;;;;;30.63;42.74;101391.34;144992;620;6002;-80
2021/08/15 11:40:32;;;;;;;4.18;3.70;;;;;;;30.64;43.42;101401.12;144992;715;6002;-78